Time;durP1;ratioP1;P1;durP2;ratioP2;P2;SDS_P1;SDS_P2;PMS_P1;PMS_P2;Temp;Humidity;BMP_temperature;BMP_pressure;BME280_temperature;BME280_humidity;BME280_pressure;Samples;Min_cycle;Max_cycle;Signal;HPM_P1;HPM_P2
2023/04/02 00:00:09;;;;;;;1999.90;999.90;;;4.60;99.90;;;;;;5040944;28;20036;-71
2023/04/02 00:02:44;;;;;;;1999.90;999.90;;;4.50;99.90;;;;;;5047348;28;20502;-71
2023/04/02 00:05:18;;;;;;;1999.90;999.90;;;4.50;99.90;;;;;;5067698;28;20419;-71
2023/04/02 00:07:49;;;;;;;1999.90;999.90;;;4.50;99.90;;;;;;5058252;28;20080;-71
2023/04/02 00:10:38;;;;;;;1999.90;999.90;;;4.40;99.90;;;;;;5056166;28;20427;-72
2023/04/02 00:13:18;;;;;;;1999.90;999.90;;;4.40;99.90;;;;;;5039635;28;20044;-71
2023/04/02 00:15:47;;;;;;;1999.90;999.90;;;4.40;99.90;;;;;;5069614;28;20044;-72
2023/04/02 00:18:16;;;;;;;1999.90;999.90;;;4.40;99.90;;;;;;5071360;28;20135;-72
2023/04/02 00:20:46;;;;;;;1999.90;999.90;;;4.40;99.90;;;;;;5055513;28;20503;-72
2023/04/02 00:23:14;;;;;;;1999.90;999.90;;;4.30;99.90;;;;;;5058369;28;20126;-71
2023/04/02 00:25:44;;;;;;;1999.90;999.90;;;4.30;99.90;;;;;;5050639;28;20060;-71
2023/04/02 00:28:19;;;;;;;1999.90;999.90;;;4.20;99.90;;;;;;5060896;28;20123;-71
2023/04/02 00:30:53;;;;;;;1999.90;999.90;;;4.10;99.90;;;;;;5058382;28;20482;-71
2023/04/02 00:33:23;;;;;;;1999.90;999.90;;;4.00;99.90;;;;;;5036582;28;20055;-71
2023/04/02 00:35:51;;;;;;;1999.90;999.90;;;3.80;99.90;;;;;;5058987;28;20044;-71
2023/04/02 00:38:29;;;;;;;1999.90;999.90;;;3.70;99.90;;;;;;5056620;28;20041;-72
2023/04/02 00:40:58;;;;;;;1999.90;999.90;;;3.60;99.90;;;;;;5053107;28;20041;-71
2023/04/02 00:43:29;;;;;;;1999.90;999.90;;;3.60;99.90;;;;;;5071289;28;20075;-71
2023/04/02 00:45:57;;;;;;;1999.90;999.90;;;3.50;99.90;;;;;;5038671;28;20102;-72
2023/04/02 00:48:53;;;;;;;1999.90;999.90;;;3.50;99.90;;;;;;5056993;28;20044;-71
2023/04/02 00:51:29;;;;;;;1999.90;999.90;;;3.40;99.90;;;;;;5053656;28;20036;-71
2023/04/02 00:53:59;;;;;;;1999.90;999.90;;;3.30;99.90;;;;;;5058391;28;20097;-72
2023/04/02 00:56:40;;;;;;;1999.90;999.90;;;3.30;99.90;;;;;;5059015;28;20121;-71
2023/04/02 00:59:18;;;;;;;1999.90;999.90;;;3.30;99.90;;;;;;5056946;28;20191;-71
2023/04/02 01:01:44;;;;;;;1999.90;999.90;;;3.20;99.90;;;;;;5056756;28;20036;-71
2023/04/02 01:04:33;;;;;;;1999.90;999.90;;;3.10;99.90;;;;;;5057172;28;20047;-69
2023/04/02 01:07:06;;;;;;;1999.90;999.90;;;3.10;99.90;;;;;;5045261;28;20479;-69
2023/04/02 01:09:47;;;;;;;1999.90;999.90;;;3.10;99.90;;;;;;5051960;28;20125;-69
2023/04/02 01:12:35;;;;;;;1999.90;999.90;;;3.10;99.90;;;;;;5050829;28;20045;-69
2023/04/02 01:15:06;;;;;;;1999.90;999.90;;;3.10;99.90;;;;;;5057065;28;20074;-69
2023/04/02 01:17:47;;;;;;;1999.90;999.90;;;3.00;99.90;;;;;;5059795;28;20044;-69
2023/04/02 01:20:47;;;;;;;1999.90;999.90;;;3.00;99.90;;;;;;5061548;28;20782;-69
2023/04/02 01:23:33;;;;;;;1999.90;999.90;;;2.90;99.90;;;;;;5038699;28;20064;-69
2023/04/02 01:26:21;;;;;;;1999.90;999.90;;;2.90;99.90;;;;;;5060390;28;20060;-71
2023/04/02 01:29:22;;;;;;;1999.90;999.90;;;2.80;99.90;;;;;;5039928;28;20500;-72
2023/04/02 01:31:50;;;;;;;1999.90;999.90;;;2.80;99.90;;;;;;5061291;28;20044;-71
2023/04/02 01:34:20;;;;;;;1999.90;999.90;;;2.80;99.90;;;;;;5060730;28;20404;-72
2023/04/02 01:37:01;;;;;;;1999.90;999.90;;;2.80;99.90;;;;;;5053178;28;20079;-72
2023/04/02 01:39:36;;;;;;;1999.90;999.90;;;2.80;99.90;;;;;;5043558;28;20041;-71
2023/04/02 01:42:26;;;;;;;1999.90;999.90;;;2.70;99.90;;;;;;5057228;28;20047;-71
2023/04/02 01:45:00;;;;;;;1999.90;999.90;;;2.70;99.90;;;;;;5058033;28;20053;-71
2023/04/02 01:47:28;;;;;;;1999.90;999.90;;;2.70;99.90;;;;;;5039403;28;20453;-69
2023/04/02 01:50:02;;;;;;;1999.90;999.90;;;2.70;99.90;;;;;;5044662;28;20391;-69
2023/04/02 01:52:52;;;;;;;1999.90;999.90;;;2.60;99.90;;;;;;5060117;28;20095;-69
2023/04/02 01:55:28;;;;;;;1999.90;999.90;;;2.60;99.90;;;;;;5055620;28;20072;-69
2023/04/02 01:57:55;;;;;;;1999.90;999.90;;;2.60;99.90;;;;;;5057147;28;20500;-70
2023/04/02 02:00:22;;;;;;;1999.90;999.90;;;2.60;99.90;;;;;;5058147;28;20415;-69
2023/04/02 02:02:49;;;;;;;1999.90;999.90;;;2.50;99.90;;;;;;5053803;28;20044;-70
2023/04/02 02:05:17;;;;;;;1999.90;999.90;;;2.50;99.90;;;;;;5056829;28;20071;-70
2023/04/02 02:07:44;;;;;;;1999.90;999.90;;;2.50;99.90;;;;;;5058311;28;20036;-70
2023/04/02 02:10:16;;;;;;;1999.90;999.90;;;2.50;99.90;;;;;;5055407;28;20058;-70
2023/04/02 02:12:43;;;;;;;1999.90;999.90;;;2.40;99.90;;;;;;5042061;28;20435;-70
2023/04/02 02:15:21;;;;;;;1999.90;999.90;;;2.40;99.90;;;;;;5044954;28;20404;-70
2023/04/02 02:17:47;;;;;;;1999.90;999.90;;;2.40;99.90;;;;;;5060960;28;20407;-70
2023/04/02 02:20:13;;;;;;;1999.90;999.90;;;2.40;99.90;;;;;;5040323;28;20075;-70
2023/04/02 02:22:43;;;;;;;1999.90;999.90;;;2.30;99.90;;;;;;5063190;28;20052;-70
2023/04/02 02:25:27;;;;;;;1999.90;999.90;;;2.30;99.90;;;;;;5062609;28;20064;-70
2023/04/02 02:27:59;;;;;;;1999.90;999.90;;;2.20;99.90;;;;;;5059461;28;20439;-70
2023/04/02 02:30:36;;;;;;;1999.90;999.90;;;2.20;99.90;;;;;;5043563;28;20063;-70
2023/04/02 02:33:24;;;;;;;1999.90;999.90;;;2.20;99.90;;;;;;5061479;28;20041;-70
2023/04/02 02:35:55;;;;;;;1999.90;999.90;;;2.20;99.90;;;;;;5046430;28;20040;-70
2023/04/02 02:38:33;;;;;;;1999.90;999.90;;;2.20;99.90;;;;;;5039861;28;20068;-69
2023/04/02 02:41:15;;;;;;;1999.90;999.90;;;2.20;99.90;;;;;;5062931;28;20073;-69
2023/04/02 02:43:47;;;;;;;1999.90;999.90;;;2.20;99.90;;;;;;5063788;28;20044;-69
2023/04/02 02:46:17;;;;;;;1999.90;999.90;;;2.20;99.90;;;;;;5044881;28;20037;-70
2023/04/02 02:48:43;;;;;;;1999.90;999.90;;;2.20;99.90;;;;;;5076923;28;20036;-69
2023/04/02 02:51:18;;;;;;;1999.90;999.90;;;2.20;99.90;;;;;;5043860;28;20106;-70
2023/04/02 02:53:49;;;;;;;1999.90;999.90;;;2.20;99.90;;;;;;5061528;28;20141;-72
2023/04/02 02:56:15;;;;;;;1999.90;999.90;;;2.20;99.90;;;;;;5040471;28;20036;-70
2023/04/02 02:58:40;;;;;;;1999.90;999.90;;;2.20;99.90;;;;;;5062254;28;20535;-70
2023/04/02 03:01:06;;;;;;;1999.90;999.90;;;2.20;99.90;;;;;;5046523;28;20087;-70
2023/04/02 03:03:33;;;;;;;1999.90;999.90;;;2.10;99.90;;;;;;5058535;28;20036;-70
2023/04/02 03:06:05;;;;;;;1999.90;999.90;;;2.00;99.90;;;;;;5057753;28;20040;-70
2023/04/02 03:09:02;;;;;;;1999.90;999.90;;;2.00;99.90;;;;;;5061562;28;20037;-70
2023/04/02 03:11:32;;;;;;;1999.90;999.90;;;2.00;99.90;;;;;;5057719;28;20447;-70
2023/04/02 03:14:14;;;;;;;1999.90;999.90;;;2.00;99.90;;;;;;5055647;28;20047;-70
2023/04/02 03:16:46;;;;;;;1999.90;999.90;;;2.00;99.90;;;;;;5069538;28;20044;-70
2023/04/02 03:19:27;;;;;;;1999.90;999.90;;;2.00;99.90;;;;;;5045658;28;20056;-70
2023/04/02 03:22:03;;;;;;;1999.90;999.90;;;2.00;99.90;;;;;;5075551;28;20397;-70
2023/04/02 03:24:42;;;;;;;1999.90;999.90;;;1.90;99.90;;;;;;5048182;28;20503;-70
2023/04/02 03:27:07;;;;;;;1999.90;999.90;;;1.90;99.90;;;;;;5061175;28;20045;-70
2023/04/02 03:29:37;;;;;;;1999.90;999.90;;;1.90;99.90;;;;;;5055980;28;20056;-70
2023/04/02 03:32:18;;;;;;;1999.90;999.90;;;1.80;99.90;;;;;;5059377;28;20041;-70
2023/04/02 03:34:55;;;;;;;1999.90;999.90;;;1.80;99.90;;;;;;5059471;28;20040;-70
2023/04/02 03:37:41;;;;;;;1999.90;999.90;;;1.80;99.90;;;;;;5060146;28;20043;-70
2023/04/02 03:40:14;;;;;;;1999.90;999.90;;;1.80;99.90;;;;;;5062050;28;20151;-70
2023/04/02 03:43:00;;;;;;;1999.90;999.90;;;1.70;99.90;;;;;;5076723;28;20040;-70
2023/04/02 03:45:35;;;;;;;1999.90;999.90;;;1.70;99.90;;;;;;5056194;28;20036;-70
2023/04/02 03:48:30;;;;;;;1999.90;999.90;;;1.70;99.90;;;;;;5042723;28;20055;-70
2023/04/02 03:51:19;;;;;;;1999.90;999.90;;;1.70;99.90;;;;;;5077222;28;20100;-70
2023/04/02 03:53:46;;;;;;;1999.90;999.90;;;1.80;99.90;;;;;;5057689;28;20033;-70
2023/04/02 03:56:27;;;;;;;1999.90;999.90;;;1.70;99.90;;;;;;5060654;28;20876;-70
2023/04/02 03:59:12;;;;;;;1999.90;999.90;;;1.70;99.90;;;;;;5044838;28;20155;-70
2023/04/02 04:01:58;;;;;;;1999.90;999.90;;;1.70;99.90;;;;;;5074773;28;20045;-70
2023/04/02 04:04:27;;;;;;;1999.90;999.90;;;1.80;99.90;;;;;;5058401;28;20134;-70
2023/04/02 04:06:55;;;;;;;1999.90;999.90;;;1.80;99.90;;;;;;5061328;28;20048;-70
2023/04/02 04:09:38;;;;;;;1999.90;999.90;;;1.80;99.90;;;;;;5061423;28;20044;-70
2023/04/02 04:12:25;;;;;;;1999.90;999.90;;;1.70;99.90;;;;;;5059640;28;20450;-70
2023/04/02 04:15:00;;;;;;;1999.90;999.90;;;1.60;99.90;;;;;;5056628;28;20071;-70
2023/04/02 04:18:02;;;;;;;1999.90;999.90;;;1.70;99.90;;;;;;5060775;28;20036;-70
2023/04/02 04:20:44;;;;;;;1999.90;999.90;;;1.70;99.90;;;;;;5054316;28;20040;-70
2023/04/02 04:23:39;;;;;;;1999.90;999.90;;;1.70;99.90;;;;;;5043708;28;20036;-69
2023/04/02 04:26:11;;;;;;;1999.90;999.90;;;1.70;99.90;;;;;;5040212;28;20198;-69
2023/04/02 04:28:58;;;;;;;1999.90;999.90;;;1.70;99.90;;;;;;5072051;28;20056;-70
2023/04/02 04:31:39;;;;;;;1999.90;999.90;;;1.70;99.90;;;;;;5056327;28;20047;-69
2023/04/02 04:34:15;;;;;;;1999.90;999.90;;;1.70;99.90;;;;;;5058701;28;20040;-70
2023/04/02 04:36:54;;;;;;;1999.90;999.90;;;1.70;99.90;;;;;;5057095;28;20232;-69
2023/04/02 04:39:28;;;;;;;1999.90;999.90;;;1.70;99.90;;;;;;5051663;28;22984;-70
2023/04/02 04:41:56;;;;;;;1999.90;999.90;;;1.70;99.90;;;;;;5061745;28;20097;-70
2023/04/02 04:44:45;;;;;;;1999.90;999.90;;;1.60;99.90;;;;;;5040513;28;20071;-70
2023/04/02 04:47:29;;;;;;;1999.90;999.90;;;1.50;99.90;;;;;;5057123;28;20473;-70
2023/04/02 04:50:13;;;;;;;;;;;1.60;99.90;;;;;;5056443;28;20102;-70
2023/04/02 04:52:41;;;;;;;1999.90;999.90;;;1.60;99.90;;;;;;5056152;28;20032;-69
2023/04/02 04:55:19;;;;;;;1999.90;999.90;;;1.50;99.90;;;;;;5058988;28;20036;-70
2023/04/02 04:57:48;;;;;;;1999.90;999.90;;;1.50;99.90;;;;;;5054050;28;20123;-70
2023/04/02 05:00:23;;;;;;;1999.90;999.90;;;1.50;99.90;;;;;;5058395;28;20053;-69
2023/04/02 05:03:16;;;;;;;1999.90;999.90;;;1.50;99.90;;;;;;5042496;28;20063;-70
2023/04/02 05:05:43;;;;;;;1999.90;999.90;;;1.50;99.90;;;;;;5031102;28;20335;-70
2023/04/02 05:08:31;;;;;;;1999.90;999.90;;;1.50;99.90;;;;;;5057141;28;20060;-70
2023/04/02 05:11:02;;;;;;;1999.90;999.90;;;1.60;99.90;;;;;;5057806;28;20055;-70
2023/04/02 05:13:45;;;;;;;1999.90;999.90;;;1.60;99.90;;;;;;5050446;28;20044;-70
2023/04/02 05:16:35;;;;;;;1999.90;999.90;;;1.60;99.90;;;;;;5061069;28;20523;-70
2023/04/02 05:19:07;;;;;;;1999.90;999.90;;;1.60;99.90;;;;;;5071265;28;20049;-70
2023/04/02 05:21:33;;;;;;;1999.90;999.90;;;1.70;99.90;;;;;;5041461;28;20102;-70
2023/04/02 05:24:22;;;;;;;1999.90;999.90;;;1.60;99.90;;;;;;5041999;28;20060;-70
2023/04/02 05:26:50;;;;;;;1999.90;999.90;;;1.70;99.90;;;;;;5074221;28;20052;-70
2023/04/02 05:29:23;;;;;;;1999.90;999.90;;;1.70;99.90;;;;;;5036300;28;20048;-70
2023/04/02 05:31:55;;;;;;;1999.90;999.90;;;1.80;99.90;;;;;;5059254;28;20045;-70
2023/04/02 05:34:30;;;;;;;1999.90;999.90;;;1.80;99.90;;;;;;5061746;28;20033;-70
2023/04/02 05:36:56;;;;;;;1999.90;999.90;;;1.90;99.90;;;;;;5036811;28;20442;-70
2023/04/02 05:39:24;;;;;;;1999.90;999.90;;;1.90;99.90;;;;;;5059301;28;20051;-70
2023/04/02 05:42:04;;;;;;;1999.90;999.90;;;2.00;99.90;;;;;;5044269;28;20177;-70
2023/04/02 05:44:37;;;;;;;1999.90;999.90;;;2.00;99.90;;;;;;5059143;28;20032;-70
2023/04/02 05:47:24;;;;;;;1999.90;999.90;;;2.00;99.90;;;;;;5059176;28;20098;-70
2023/04/02 05:50:04;;;;;;;1999.90;999.90;;;2.10;99.90;;;;;;5056410;28;20051;-69
2023/04/02 05:52:35;;;;;;;1999.90;999.90;;;2.20;99.90;;;;;;5055150;28;20119;-69
2023/04/02 05:55:15;;;;;;;1999.90;999.90;;;2.20;99.90;;;;;;5058490;28;20041;-69
2023/04/02 05:57:48;;;;;;;1999.90;999.90;;;2.20;99.90;;;;;;5038295;28;20508;-69
2023/04/02 06:00:21;;;;;;;1999.90;999.90;;;2.20;99.90;;;;;;5051751;28;20591;-69
2023/04/02 06:02:58;;;;;;;1999.90;999.90;;;2.20;99.90;;;;;;5060868;28;20463;-69
2023/04/02 06:05:34;;;;;;;1999.90;999.90;;;2.30;99.90;;;;;;5040290;28;20143;-69
2023/04/02 06:08:07;;;;;;;1999.90;999.90;;;2.50;99.90;;;;;;5041458;28;20040;-69
2023/04/02 06:10:41;;;;;;;1999.90;999.90;;;2.60;99.90;;;;;;5039689;28;20048;-69
2023/04/02 06:13:07;;;;;;;1999.90;999.90;;;2.80;99.90;;;;;;5055766;28;20044;-69
2023/04/02 06:15:35;;;;;;;1999.90;999.90;;;2.90;99.90;;;;;;5052949;28;20043;-72
2023/04/02 06:18:25;;;;;;;1999.90;999.90;;;3.00;99.90;;;;;;5044052;28;20041;-69
2023/04/02 06:20:51;;;;;;;1999.90;999.90;;;3.10;99.90;;;;;;5060581;28;20048;-69
2023/04/02 06:23:45;;;;;;;1999.90;999.90;;;3.20;99.90;;;;;;5043412;28;20044;-69
2023/04/02 06:26:32;;;;;;;1999.90;999.90;;;3.40;99.90;;;;;;5052797;28;20064;-69
2023/04/02 06:29:17;;;;;;;1999.90;999.90;;;3.50;99.90;;;;;;5057256;28;20503;-69
2023/04/02 06:31:53;;;;;;;1999.90;999.90;;;3.30;99.90;;;;;;5059581;28;20066;-69
2023/04/02 06:34:22;;;;;;;1999.90;999.90;;;3.30;99.90;;;;;;5050946;28;20045;-69
2023/04/02 06:36:50;;;;;;;1999.90;999.90;;;3.30;99.90;;;;;;5055327;28;20195;-69
2023/04/02 06:39:21;;;;;;;1999.90;999.90;;;3.30;99.90;;;;;;5054703;28;20100;-69
2023/04/02 06:41:59;;;;;;;1999.90;999.90;;;3.30;99.90;;;;;;5052850;28;20051;-69
2023/04/02 06:44:28;;;;;;;1999.90;999.90;;;3.30;99.90;;;;;;5071293;28;20382;-69
2023/04/02 06:47:06;;;;;;;1999.90;999.90;;;3.30;99.90;;;;;;5057781;28;20460;-69
2023/04/02 06:49:45;;;;;;;1999.90;999.90;;;3.30;99.90;;;;;;5056547;28;20527;-69
2023/04/02 06:52:27;;;;;;;1999.90;999.90;;;3.40;99.90;;;;;;5057122;28;20032;-69
2023/04/02 06:54:53;;;;;;;1999.90;999.90;;;3.50;99.90;;;;;;5060789;28;20119;-69
2023/04/02 06:57:19;;;;;;;1999.90;999.90;;;3.60;99.90;;;;;;5052725;28;20043;-69
2023/04/02 06:59:44;;;;;;;1999.90;999.90;;;3.70;99.90;;;;;;5059116;28;20496;-69
2023/04/02 07:02:35;;;;;;;1999.90;999.90;;;3.80;99.90;;;;;;5056988;28;20044;-69
2023/04/02 07:05:10;;;;;;;1999.90;999.90;;;3.80;99.90;;;;;;5059139;28;20458;-69
2023/04/02 07:07:35;;;;;;;1999.90;999.90;;;3.90;99.90;;;;;;5060251;28;20300;-69
2023/04/02 07:10:01;;;;;;;1999.90;999.90;;;4.00;99.90;;;;;;5062987;28;20504;-69
2023/04/02 07:12:27;;;;;;;1999.90;999.90;;;4.10;99.90;;;;;;5053830;28;20123;-70
2023/04/02 07:14:52;;;;;;;1999.90;999.90;;;4.10;99.90;;;;;;5055574;28;20523;-70
2023/04/02 07:17:20;;;;;;;1999.90;999.90;;;4.10;99.90;;;;;;5059929;28;20037;-71
2023/04/02 07:19:48;;;;;;;1999.90;999.90;;;4.10;99.90;;;;;;5065508;28;20040;-70
2023/04/02 07:22:17;;;;;;;1999.90;999.90;;;4.20;99.90;;;;;;5062884;28;20081;-70
2023/04/02 07:24:44;;;;;;;1999.90;999.90;;;4.30;99.90;;;;;;5060605;28;20135;-69
2023/04/02 07:27:10;;;;;;;1999.90;999.90;;;4.40;99.90;;;;;;5045347;28;20122;-70
2023/04/02 07:29:41;;;;;;;1999.90;999.90;;;4.50;99.90;;;;;;5059901;28;20110;-71
2023/04/02 07:32:08;;;;;;;1999.90;999.90;;;4.60;99.90;;;;;;5070449;28;20091;-70
2023/04/02 07:34:34;;;;;;;1999.90;999.90;;;4.50;99.90;;;;;;5057845;28;20047;-70
2023/04/02 07:37:01;;;;;;;1999.90;999.90;;;4.60;99.90;;;;;;5047386;28;20040;-70
2023/04/02 07:39:27;;;;;;;1999.90;999.90;;;4.70;99.90;;;;;;5059253;28;20120;-70
2023/04/02 07:41:55;;;;;;;1999.90;999.90;;;4.70;99.90;;;;;;5048401;28;20146;-70
2023/04/02 07:44:21;;;;;;;1999.90;999.90;;;4.70;99.90;;;;;;5062697;28;20044;-70
2023/04/02 07:46:47;;;;;;;1999.90;999.90;;;4.70;99.90;;;;;;5066137;28;20040;-70
2023/04/02 07:49:13;;;;;;;1999.90;999.90;;;4.70;99.90;;;;;;5054219;28;20093;-70
2023/04/02 07:51:38;;;;;;;1999.90;999.90;;;4.80;99.90;;;;;;5064014;28;20049;-70
2023/04/02 07:54:04;;;;;;;1999.90;999.90;;;4.90;99.90;;;;;;5064318;28;20064;-70
2023/04/02 07:56:30;;;;;;;1999.90;999.90;;;5.00;99.90;;;;;;5047476;28;20066;-70
2023/04/02 07:58:56;;;;;;;1999.90;999.90;;;5.10;99.90;;;;;;5062172;28;20045;-70
2023/04/02 08:01:24;;;;;;;1999.90;999.90;;;5.30;99.90;;;;;;5065220;28;20044;-70
2023/04/02 08:03:51;;;;;;;1999.90;999.90;;;5.40;99.90;;;;;;5060160;28;20495;-70
2023/04/02 08:06:16;;;;;;;1999.90;999.90;;;5.40;99.90;;;;;;5055938;28;20049;-70
2023/04/02 08:08:42;;;;;;;1999.90;999.90;;;5.50;99.90;;;;;;5047026;28;20445;-70
2023/04/02 08:11:08;;;;;;;1999.90;999.90;;;5.50;99.90;;;;;;5046379;28;20584;-70
2023/04/02 08:13:34;;;;;;;1999.90;999.90;;;5.70;99.90;;;;;;5064524;28;20033;-70
2023/04/02 08:16:01;;;;;;;1999.90;999.90;;;5.70;99.90;;;;;;5061811;28;20508;-70
2023/04/02 08:18:27;;;;;;;1999.90;999.90;;;5.80;99.90;;;;;;5063871;28;20086;-70
2023/04/02 08:20:54;;;;;;;1999.90;999.90;;;5.70;99.90;;;;;;5062429;28;20044;-70
2023/04/02 08:23:20;;;;;;;1999.90;999.90;;;5.60;99.90;;;;;;5039148;28;20040;-70
2023/04/02 08:25:46;;;;;;;1999.90;999.90;;;5.60;99.90;;;;;;5063361;28;20067;-70
2023/04/02 08:28:12;;;;;;;1999.90;999.90;;;5.80;99.90;;;;;;5060521;28;20457;-70
2023/04/02 08:30:38;;;;;;;1999.90;999.90;;;5.90;99.90;;;;;;5063598;28;20242;-70
2023/04/02 08:33:04;;;;;;;1999.90;999.90;;;5.90;99.90;;;;;;5077494;28;20029;-70
2023/04/02 08:35:30;;;;;;;1999.90;999.90;;;5.80;99.90;;;;;;5062550;28;20048;-70
2023/04/02 08:37:56;;;;;;;1999.90;999.90;;;5.70;99.90;;;;;;5059336;28;20048;-70
2023/04/02 08:40:40;;;;;;;1999.90;999.90;;;5.50;99.90;;;;;;5041780;28;20048;-70
2023/04/02 08:43:21;;;;;;;1999.90;999.90;;;5.30;99.90;;;;;;5072059;28;20056;-70
2023/04/02 08:45:59;;;;;;;1999.90;999.90;;;5.10;99.90;;;;;;5046054;28;20119;-70
2023/04/02 08:48:25;;;;;;;1999.90;999.90;;;5.30;99.90;;;;;;5059606;28;20045;-70
2023/04/02 08:50:51;;;;;;;1999.90;999.90;;;5.60;99.90;;;;;;5041612;28;20103;-70
2023/04/02 08:53:24;;;;;;;1999.90;999.90;;;5.80;99.90;;;;;;5041486;28;20041;-70
2023/04/02 08:56:04;;;;;;;1999.90;999.90;;;5.60;99.90;;;;;;5053692;28;20037;-70
2023/04/02 08:58:53;;;;;;;1999.90;999.90;;;5.50;99.90;;;;;;5055012;28;20443;-70
2023/04/02 09:01:45;;;;;;;1999.90;999.90;;;5.70;99.90;;;;;;5054880;28;20086;-71
2023/04/02 09:04:17;;;;;;;1999.90;999.90;;;6.10;99.90;;;;;;5062476;28;20539;-70
2023/04/02 09:06:44;;;;;;;1999.90;999.90;;;6.20;99.90;;;;;;5042980;28;20055;-70
2023/04/02 09:09:12;;;;;;;1999.90;999.90;;;6.50;99.90;;;;;;5060074;28;20051;-70
2023/04/02 09:11:53;;;;;;;1999.90;999.90;;;6.30;99.90;;;;;;5058243;28;20040;-70
2023/04/02 09:14:43;;;;;;;1999.90;999.90;;;6.20;99.90;;;;;;5044480;28;20040;-70
2023/04/02 09:17:23;;;;;;;1999.90;999.90;;;6.60;99.90;;;;;;5069409;28;20047;-69
2023/04/02 09:19:55;;;;;;;1999.90;999.90;;;7.20;99.90;;;;;;5058653;28;20091;-69
2023/04/02 09:22:31;;;;;;;1999.90;999.90;;;7.50;99.90;;;;;;5041940;28;20393;-69
2023/04/02 09:24:59;;;;;;;1999.90;999.90;;;7.50;99.90;;;;;;5043339;28;20506;-69
2023/04/02 09:27:31;;;;;;;1999.90;999.90;;;7.50;99.90;;;;;;5058473;28;20385;-69
2023/04/02 09:30:02;;;;;;;1999.90;999.90;;;7.60;99.90;;;;;;5043100;28;20140;-69
2023/04/02 09:32:51;;;;;;;1999.90;999.90;;;7.70;99.90;;;;;;5057338;28;20075;-69
2023/04/02 09:35:18;;;;;;;1999.90;999.90;;;7.70;99.90;;;;;;5053298;28;20043;-69
2023/04/02 09:37:44;;;;;;;1999.90;999.90;;;7.70;99.90;;;;;;5043546;28;20416;-69
2023/04/02 09:40:22;;;;;;;1999.90;999.90;;;7.90;99.90;;;;;;5061722;28;20028;-69
2023/04/02 09:42:48;;;;;;;1999.90;999.90;;;8.20;99.90;;;;;;5056791;28;20570;-69
2023/04/02 09:45:18;;;;;;;1999.90;999.90;;;8.30;99.90;;;;;;5060153;28;20166;-69
2023/04/02 09:47:44;;;;;;;1999.90;999.90;;;8.20;99.90;;;;;;5040872;28;20037;-69
2023/04/02 09:50:20;;;;;;;1999.90;999.90;;;8.00;99.90;;;;;;5042000;28;20037;-70
2023/04/02 09:52:49;;;;;;;1999.90;999.90;;;8.10;99.90;;;;;;5060288;28;20036;-70
2023/04/02 09:55:15;;;;;;;1999.90;999.90;;;8.20;99.90;;;;;;5062296;28;20659;-69
2023/04/02 09:57:41;;;;;;;1999.90;999.90;;;8.20;99.90;;;;;;5057446;28;20044;-70
2023/04/02 10:00:18;;;;;;;1999.90;999.90;;;8.30;99.90;;;;;;5059115;28;20029;-69
2023/04/02 10:02:45;;;;;;;1999.90;999.90;;;8.40;99.90;;;;;;5059758;28;20044;-70
2023/04/02 10:05:21;;;;;;;1999.90;999.90;;;8.40;99.90;;;;;;5059849;28;20603;-70
2023/04/02 10:07:53;;;;;;;1999.90;999.90;;;8.50;99.90;;;;;;5043458;28;20124;-69
2023/04/02 10:10:21;;;;;;;1999.90;999.90;;;8.60;99.90;;;;;;5051746;28;20047;-70
2023/04/02 10:12:58;;;;;;;1999.90;999.90;;;8.70;99.90;;;;;;5061052;28;20448;-70
2023/04/02 10:15:34;;;;;;;1999.90;999.90;;;8.70;99.90;;;;;;5073640;28;20044;-69
2023/04/02 10:18:09;;;;;;;1999.90;999.90;;;8.70;99.90;;;;;;5037444;28;20044;-70
2023/04/02 10:20:38;;;;;;;1999.90;999.90;;;8.80;99.90;;;;;;5052089;28;20392;-69
2023/04/02 10:23:04;;;;;;;1999.90;999.90;;;8.90;99.90;;;;;;5060250;28;20214;-69
2023/04/02 10:25:34;;;;;;;1999.90;999.90;;;9.10;99.90;;;;;;5057533;28;20157;-69
2023/04/02 10:28:22;;;;;;;1999.90;999.90;;;9.20;99.90;;;;;;5062068;28;20045;-69
2023/04/02 10:31:02;;;;;;;1999.90;999.90;;;9.30;99.90;;;;;;5044793;28;20045;-70
2023/04/02 10:33:35;;;;;;;1999.90;999.90;;;9.40;99.90;;;;;;5052851;28;20048;-69
2023/04/02 10:36:32;;;;;;;1999.90;999.90;;;9.40;99.90;;;;;;5060840;28;20044;-70
2023/04/02 10:39:38;;;;;;;1999.90;999.90;;;9.30;99.90;;;;;;5045568;28;20132;-70
2023/04/02 10:42:08;;;;;;;1999.90;999.90;;;9.30;99.90;;;;;;5064338;28;20552;-70
2023/04/02 10:44:54;;;;;;;1999.90;999.90;;;9.30;99.90;;;;;;5065810;28;20063;-70
2023/04/02 10:47:25;;;;;;;1999.90;999.90;;;9.40;99.90;;;;;;5080653;28;20382;-70
2023/04/02 10:50:00;;;;;;;1999.90;999.90;;;9.40;99.90;;;;;;5041029;28;20077;-69
2023/04/02 10:52:28;;;;;;;;;;;9.50;99.90;;;;;;5065264;28;20071;-69
2023/04/02 10:55:13;;;;;;;1999.90;999.90;;;9.70;99.90;;;;;;5066005;28;19920;-69
2023/04/02 10:57:41;;;;;;;1999.90;999.90;;;9.80;99.90;;;;;;5050450;28;20064;-69
2023/04/02 11:00:10;;;;;;;1999.90;999.90;;;9.80;99.90;;;;;;5065307;28;20041;-69
2023/04/02 11:02:57;;;;;;;1999.90;999.90;;;9.70;99.90;;;;;;5061698;28;20143;-69
2023/04/02 11:05:53;;;;;;;1999.90;999.90;;;9.60;99.90;;;;;;5049117;28;20037;-70
2023/04/02 11:08:43;;;;;;;1999.90;999.90;;;9.70;99.90;;;;;;5062857;28;20048;-69
2023/04/02 11:11:11;;;;;;;1999.90;999.90;;;9.60;99.90;;;;;;5061913;28;20051;-69
2023/04/02 11:13:46;;;;;;;1999.90;999.90;;;9.80;99.90;;;;;;5063070;28;20033;-69
2023/04/02 11:16:15;;;;;;;1999.90;999.90;;;9.80;99.90;;;;;;5042592;28;20084;-69
2023/04/02 11:18:41;;;;;;;1999.90;999.90;;;9.90;99.90;;;;;;5063161;28;20044;-69
2023/04/02 11:21:29;;;;;;;1999.90;999.90;;;9.90;99.90;;;;;;5061964;28;20087;-69
2023/04/02 11:24:01;;;;;;;1999.90;999.90;;;9.90;99.90;;;;;;5049063;28;20399;-69
2023/04/02 11:26:40;;;;;;;1999.90;999.90;;;10.10;99.90;;;;;;5080173;28;20416;-69
2023/04/02 11:29:26;;;;;;;1999.90;999.90;;;10.30;99.90;;;;;;5063913;28;20522;-70
2023/04/02 11:32:20;;;;;;;1999.90;999.90;;;10.50;99.90;;;;;;5059009;28;20081;-69
2023/04/02 11:34:46;;;;;;;1999.90;999.90;;;10.50;99.90;;;;;;5063443;28;20147;-69
2023/04/02 11:37:38;;;;;;;1999.90;999.90;;;10.60;99.90;;;;;;5041360;28;20115;-69
2023/04/02 11:40:09;;;;;;;1999.90;999.90;;;10.60;99.90;;;;;;5044460;28;20476;-69
2023/04/02 11:42:39;;;;;;;1999.90;999.90;;;10.50;99.90;;;;;;5046429;28;20374;-69
2023/04/02 11:45:22;;;;;;;1999.90;999.90;;;10.50;99.90;;;;;;5065196;28;20051;-69
2023/04/02 11:48:00;;;;;;;1999.90;999.90;;;10.70;99.90;;;;;;5050424;28;20047;-68
2023/04/02 11:50:44;;;;;;;1999.90;999.90;;;10.80;99.90;;;;;;5074615;28;20044;-69
2023/04/02 11:53:10;;;;;;;1999.90;999.90;;;10.60;99.90;;;;;;5043185;28;20115;-69
2023/04/02 11:55:43;;;;;;;1999.90;999.90;;;10.50;99.90;;;;;;5059956;28;20123;-69
2023/04/02 11:58:31;;;;;;;1999.90;999.90;;;10.50;99.90;;;;;;5063426;28;20127;-69
2023/04/02 12:01:30;;;;;;;1999.90;999.90;;;10.50;99.90;;;;;;5078690;28;20327;-69
2023/04/02 12:04:08;;;;;;;1999.90;999.90;;;10.30;99.60;;;;;;5077089;28;20059;-69
2023/04/02 12:06:45;;;;;;;1999.90;999.90;;;10.10;99.90;;;;;;5046174;28;20055;-69
2023/04/02 12:09:25;;;;;;;1999.90;999.90;;;10.10;99.90;;;;;;5062510;28;20037;-69
2023/04/02 12:11:54;;;;;;;1999.90;999.90;;;10.40;99.90;;;;;;5043086;28;20044;-69
2023/04/02 12:14:44;;;;;;;1999.90;999.90;;;10.40;99.90;;;;;;5043986;28;20565;-69
2023/04/02 12:17:32;;;;;;;1999.90;999.90;;;10.60;99.90;;;;;;5062989;28;20051;-69
2023/04/02 12:20:20;;;;;;;1999.90;999.90;;;10.80;99.90;;;;;;5058894;28;20053;-69
2023/04/02 12:22:53;;;;;;;1999.90;999.90;;;11.00;99.90;;;;;;5060775;28;20044;-69
2023/04/02 12:25:30;;;;;;;1999.90;999.90;;;11.10;99.90;;;;;;5059159;28;20060;-69
2023/04/02 12:28:03;;;;;;;1999.90;999.90;;;11.00;99.90;;;;;;5060987;28;20058;-69
2023/04/02 12:30:29;;;;;;;1999.90;999.90;;;11.00;98.70;;;;;;5061678;28;20037;-69
2023/04/02 12:32:56;;;;;;;1999.90;999.90;;;10.80;99.90;;;;;;5037721;28;20052;-69
2023/04/02 12:35:35;;;;;;;1999.90;999.90;;;10.80;99.90;;;;;;5060049;28;20051;-69
2023/04/02 12:38:01;;;;;;;1999.90;999.90;;;10.80;99.90;;;;;;5063661;28;20130;-69
2023/04/02 12:40:27;;;;;;;1999.90;999.90;;;10.80;99.90;;;;;;5062418;28;20119;-69
2023/04/02 12:42:53;;;;;;;1999.90;999.90;;;11.00;99.90;;;;;;5062361;28;20083;-69
2023/04/02 12:45:29;;;;;;;1999.90;999.90;;;11.00;99.70;;;;;;5046859;28;20041;-69